Portada
METAR-TAF:

METAR-TAF

Aeroports :

Pella Municipal Airport

Pella, Iowa, Estats Units d'Amèrica

latitud: 41-24N, longitud: 092-56W, altitud: 270 m

Observació

L'informe es va fer fa 19 minuts, a les 22:15 UTC
Vent 15 kt del Nord/Nord-Oest amb ràfegues de 22 kt
Temperatura 2°C
Humitat 87%
Pressió 1018 hPa
Visibilitat: 16.1 km
Cel cobert a una alçada de 1700 ft

METAR: KPEA 212215Z AUTO 33015G22KT 10SM OVC017 02/00 A3006 RMK AO2 T00231004

Hora: 16:34 (22:34 UTC)


TAF: manca

Observacions i pronòstics meteorològics de més de 4000 aeroports (METAR i TAF).

Les estacions disponibles són els punts grocs i vermells al mapa.

Posi el ratolí al punt desitjat per veure el nom de l'estació.

Feu clic per veure les observacions i els pronòstics meteorològics.

Per canviar el mapa: feu clic els botons verds amb una creu de color negre per apropar; al botó verd amb un guió per allunyar la imatge; o en les fletxes verdes per a mapes adjacents.


METAR-TAF: